메인 페이지
METAR-TAF:

METAR-TAF

공항 :

하츠필드 잭슨 애틀랜타 국제공항

애틀랜타, 조지아, 미국

위도: 33-38-25N, 경도: 084-25-37W, 고도: 313m

현재 날씨관측

예보는 1 시간 0분 전, 01:52시(UTC)에 발표되었습니다.
남서3kt
온도 7°C
습도 53%
기압 1023 hPa
시정: 16.1km
고도 15000ft 상공 구름 조금
고도 20000ft 상공 구름 보통
고도 25000ft 상공 구름 많음

METAR: KATL 130152Z 23003KT 10SM FEW150 SCT200 BKN250 07/M02 A3021 RMK AO2 SLP236 T00721022

시각: 21:52 (02:52 UTC)

예보

예보는 1 시간 6분 전, 01:46시(UTC)에 발표되었습니다.
예보 대상 시간: 13일 02시부터 14일 06시까지 (UTC)
남남서3kt
시정: 10km
고도 18000ft 상공 구름 많음
13일 0900시부터 (UTC)
동남동3kt
시정: 10km
고도 18000ft 상공 구름 많음
13일 1500시부터 (UTC)
동남동7kt
시정: 10km
고도 15000ft 상공 구름 많음
13일 2100시부터 (UTC)
10kt
시정: 10km
고도 5000ft 상공 구름 많음
고도 12000ft 상공 구름 많음
14일 0300시부터 (UTC)
12kt
시정: 10km
고도 2500ft 상공 흐림
약한비

TAF: KATL 130146Z 1302/1406 21003KT P6SM BKN180 FM130900 12003KT P6SM BKN180 FM131500 12007KT P6SM BKN150 FM132100 09010KT P6SM BKN050 BKN120 FM140300 09012KT P6SM -RA OVC025

4,000개 이상의 공항 관측 자료 및 예보 (METAR 및 TAF 보고).

지도상에서 검색 가능한 기상관측소가 노란 점과 빨간 점으로 표시되어 있습니다.

기상관측소 명을 보려면 표시 위로 마우스를 이동하세요.

날씨 관측과 예보를 보려면 클릭하세요.

지도 변경 : 확대하려면 엑스 표시가 있는 녹색 버튼, 축소하려면 빼기 표시가 있는 녹색 버튼, 다음 페이지의 지도를 보려면 녹색 화살표를 클릭하세요.


METAR-TAF: